KEGE Airport Information

Runway Information
Runway 07 Length 9000 ft width 150 ft
Elevation 6461 ft Threshold 0 ft Heading 82
Runway 25 Length 9000 ft Width 150 ft
Elevation 6547 ft Threshold 1000 ft Heading 262
Runway 08 Length 5013 ft width 60 ft
Elevation 0 ft Threshold 0 ft Heading 90
Runway 26 Length 5013 ft Width 60 ft
Elevation 0 ft Threshold 0 ft Heading 270
Airport Frequencies
Type ATIS Name ATIS Frequency 135.575 MHZ
Type AWOS Name AWOS 3 Frequency 135.575 MHZ
Type CNTR Name DENVER CNT Frequency 128.65 MHZ
Type CTAF Name CTAF Frequency 119.8 MHZ
Type GCCD Name GND/CLNC D Frequency 121.8 MHZ
Type MISC Name EAGLES NES Frequency 41.75 MHZ
Type RDO Name DENVER RDO Frequency 122.2 MHZ
Type TWR Name TWR Frequency 119.8 MHZ
Airport Navaids
Type VOR-DME Name Snow Frequency 109200 KHZ
Airport Weather Information & NOTAM
ADDS - METARS form results

(1131 UTC 21 April 2018)
 
METAR text: KEGE 211059Z AUTO 16004KT 3SM BR OVC004 00/M01 A3013 RMK AO2 FZRANO
Conditions at: KEGE (EAGLE CO. REGION, CO, US) observed 1059 UTC 21 April 2018
Temperature: 0.0°C (32°F)
Dewpoint: -1.0°C (30°F) [RH = 93%]
Pressure (altimeter): 30.13 inches Hg (1020.4 mb)
Winds: from the SSE (160 degrees) at 5 MPH (4 knots; 2.1 m/s)
Visibility: 3 miles (5 km)
Ceiling: 400 feet AGL
Clouds: overcast cloud deck at 400 feet AGL
Weather: BR  (mist)

METAR text: KEGE 211056Z AUTO 16004KT 1 1/2SM BR OVC004 00/M01 A3013 RMK AO2 VIS 3/4V5 UPE05B45E52SNB05E45 SLP221 P0001 T00001006 FZRANO
Conditions at: KEGE (EAGLE CO. REGION, CO, US) observed 1056 UTC 21 April 2018
Temperature: 0.0°C (32°F)
Dewpoint: -0.6°C (31°F) [RH = 96%]
Pressure (altimeter): 30.13 inches Hg (1020.4 mb)
[Sea-level pressure: 1022.1 mb]
Winds: from the SSE (160 degrees) at 5 MPH (4 knots; 2.1 m/s)
Visibility: 1.50 miles (2.41 km)
Ceiling: 400 feet AGL
Clouds: overcast cloud deck at 400 feet AGL
Weather: BR  (mist)

METAR text: KEGE 211043Z AUTO 06004KT 1SM -SN BR OVC004 00/M01 A3013 RMK AO2 UPE05SNB05 PRESRR P0001 FZRANO RVRNO
Conditions at: KEGE (EAGLE CO. REGION, CO, US) observed 1043 UTC 21 April 2018
Temperature: 0.0°C (32°F)
Dewpoint: -1.0°C (30°F) [RH = 93%]
Pressure (altimeter): 30.13 inches Hg (1020.4 mb)
Winds: from the ENE (60 degrees) at 5 MPH (4 knots; 2.1 m/s)
Visibility: 1.00 miles (1.61 km)
Ceiling: 400 feet AGL
Clouds: overcast cloud deck at 400 feet AGL
Weather: -SN BR  (light snow, mist)

METAR text: KEGE 211036Z AUTO 02004KT 2 1/2SM -SN BR OVC004 00/M01 A3011 RMK AO2 VIS 1 1/2V4 UPE05SNB05 P0001 FZRANO
Conditions at: KEGE (EAGLE CO. REGION, CO, US) observed 1036 UTC 21 April 2018
Temperature: 0.0°C (32°F)
Dewpoint: -1.0°C (30°F) [RH = 93%]
Pressure (altimeter): 30.11 inches Hg (1019.7 mb)
Winds: from the NNE (20 degrees) at 5 MPH (4 knots; 2.1 m/s)
Visibility: 2.50 miles (4.02 km)
Ceiling: 400 feet AGL
Clouds: overcast cloud deck at 400 feet AGL
Weather: -SN BR  (light snow, mist)